map of LVP home
LVP - Airport
Location
City:  Lavan Island, Hormozgan, Iran
Name:Lavan Airport
ICAO:OIBV
IATA:LVP

Details
Type:Airport (Aerodrome, Airfield)
Latitude:2648'37"N (26.810300)
Longitude:5321'23"E (53.356289)
Datum:WGS 1984
Elevation:76 ft (23 m)
Variation:2.60E (WMM2015 magnetic declination)
0.05 annual change
Runways:1
Longest:6815 × 148 ft (2077 × 45 m), paved

Time
Time Zone:UTC+3:30 (DST+4:30)
Local Time:

Weather
METAR:OIBV 190800Z 33006KT CAVOK 24/11 Q1019

Related Locations
Nearby:
Farthest:GMR: 11866 mi / 19097 km
Mangareva [Totegegie], Gambier Islands, PF

Find:

   beyond  
but within

Other Information
Maps:
NOTAMs:
Links:
Sources:

  
  • flag of Iran
  

Sectional Chart

Flight Planning
at skyvector.com

Satellite Image

Google Maps Satellite view

 

Copyright © 2004-2018 Karl L. Swartz. All rights reserved.
The Great Circle Mapper name and logo are trademarks of the Great Circle Mapper.
All other trademarks mentioned herein belong to their respective owners.
Please see credits for attibutions and further copyright information.

  Follow gcmap on Facebook Follow gcmap on Twitter Follow gcmap on Google+ GCmap on LinkedIn

hCard Microformat

Geo Microformat